Happy, Arkansas
Current Conditions -  °F | °C
As of 3:56 PM on Friday 31 Oct 2014 (Local Time) from KSRC Reporting Station
Clear Clear  
Wind Chill: 60°   Ceiling: Unl
Heat Index: 60°   Visibility: 10mi
Dew Point: 29°   Wind: 16mph
Humidity: 31%   Direction: 350°N
Pressure: 30.22"   Gusts: 24mph
Location:  35.2662°N, 91.8491°W
Report Text: KSRC 312056Z AUTO 35014G21KT 10SM CLR 16/M02 A3022 RMK AO2 SLP239 T01561017 55005 TSNO
Loading
Personal Weather Stations






























Interactive Weather Map
Tropical Storm Tracking
New forecast layout! Learn more

10-Day Weather Forecast

Advertisements
Track Severe Weather on mobile